Аэропорт: Ивано-Франковск. Ивано-Франковск

ICAO: UKLI

METAR:
2018/07/22 20:00
UKLI 222000Z 00000MPS CAVOK 19/18 Q1009 R28/090070 NOSIG
METAR:
2017/04/23 12:03
TAF 
      AMD TAF 
      AMD UKLI 231200Z 2312/2324 33005G10MPS 9999 BKN020 
      TEMPO 2312/2318 36010G15MPS 2100 -TSRA BKN011CB BKN015 TX10/2313Z TN05/2321Z